Time;durP1;ratioP1;P1;durP2;ratioP2;P2;SDS_P1;SDS_P2;PMS_P1;PMS_P2;Temp;Humidity;BMP_temperature;BMP_pressure;BME280_temperature;BME280_humidity;BME280_pressure;Samples;Min_cycle;Max_cycle;Signal;HPM_P1;HPM_P2
2024/03/19 08:50:14;;;;;;;3.45;0.80;;;16.00;99.90;;;;;;3431451;23;20328;-74
2024/03/19 08:52:42;;;;;;;2.00;0.80;;;16.40;99.90;;;;;;4871400;29;20703;-74
2024/03/19 08:55:12;;;;;;;2.03;0.90;;;16.10;99.90;;;;;;4868685;29;20218;-74
2024/03/19 08:57:39;;;;;;;2.67;0.88;;;16.30;99.90;;;;;;4879789;29;20231;-74
2024/03/19 09:00:11;;;;;;;1.30;0.70;;;16.40;99.90;;;;;;4880379;29;20212;-75
2024/03/19 09:02:39;;;;;;;3.40;1.20;;;16.70;99.90;;;;;;4880098;29;20207;-74
2024/03/19 09:05:06;;;;;;;1.42;0.65;;;17.20;99.90;;;;;;4880030;29;20207;-76
2024/03/19 09:07:33;;;;;;;3.08;0.90;;;17.70;99.90;;;;;;4882114;29;20227;-75
2024/03/19 09:10:01;;;;;;;2.75;0.93;;;18.10;99.90;;;;;;4879781;29;20349;-75
2024/03/19 09:12:28;;;;;;;3.17;0.75;;;18.60;99.90;;;;;;4879399;29;20293;-75
2024/03/19 09:14:54;;;;;;;3.30;0.90;;;18.70;99.90;;;;;;4879935;29;20745;-75
2024/03/19 09:17:22;;;;;;;2.30;0.93;;;18.80;99.90;;;;;;4879673;29;20313;-74
2024/03/19 09:19:49;;;;;;;1.70;0.90;;;18.40;99.90;;;;;;4879592;29;20576;-74
2024/03/19 09:22:16;;;;;;;3.00;1.00;;;17.80;99.90;;;;;;4879016;29;20213;-75
2024/03/19 09:24:42;;;;;;;3.05;1.25;;;17.90;99.90;;;;;;4879742;29;20306;-75
2024/03/19 09:27:12;;;;;;;3.03;0.90;;;18.20;99.90;;;;;;4879561;29;20231;-76
2024/03/19 09:29:39;;;;;;;2.83;1.50;;;18.20;99.90;;;;;;4879842;29;20329;-75
2024/03/19 09:32:06;;;;;;;2.25;0.93;;;18.30;99.90;;;;;;4879282;29;20215;-75
2024/03/19 09:34:35;;;;;;;2.33;1.02;;;18.10;99.90;;;;;;4879452;29;20986;-73
2024/03/19 09:37:02;;;;;;;5.20;1.17;;;18.10;99.90;;;;;;4875764;29;20241;-74
2024/03/19 09:39:29;;;;;;;3.53;0.90;;;18.00;99.90;;;;;;4878707;29;20243;-75
2024/03/19 09:42:04;;;;;;;2.80;0.90;;;17.80;99.90;;;;;;4875803;29;20203;-76
2024/03/19 09:44:33;;;;;;;2.38;0.88;;;17.80;99.90;;;;;;4889449;29;20294;-77
2024/03/19 09:47:01;;;;;;;1.92;0.98;;;18.10;99.90;;;;;;4883574;29;20842;-73
2024/03/19 09:49:32;;;;;;;1.77;1.23;;;17.90;99.90;;;;;;4878022;29;20207;-74
2024/03/19 09:52:02;;;;;;;3.67;1.00;;;17.80;99.90;;;;;;4877088;29;20677;-76
2024/03/19 09:54:29;;;;;;;3.92;1.30;;;17.80;99.90;;;;;;4877841;29;20219;-75
2024/03/19 09:56:58;;;;;;;3.10;1.00;;;17.90;99.90;;;;;;4877523;29;20325;-76
2024/03/19 09:59:26;;;;;;;2.53;0.77;;;17.80;99.90;;;;;;4877121;29;20680;-72
2024/03/19 10:01:55;;;;;;;5.78;1.17;;;17.90;99.90;;;;;;4877724;29;20239;-77
2024/03/19 10:04:23;;;;;;;2.97;0.90;;;18.10;99.90;;;;;;4877569;29;20251;-80
2024/03/19 10:06:50;;;;;;;3.03;1.00;;;18.10;99.90;;;;;;4876475;29;20223;-78
2024/03/19 10:09:19;;;;;;;3.03;1.10;;;18.10;99.90;;;;;;4877403;29;20250;-78
2024/03/19 10:11:47;;;;;;;3.20;1.10;;;18.00;99.90;;;;;;4877565;29;20209;-80
2024/03/19 10:14:15;;;;;;;2.17;0.80;;;18.00;99.90;;;;;;4881694;29;20211;-78
2024/03/19 10:16:42;;;;;;;2.28;1.00;;;18.30;99.90;;;;;;4888750;29;20262;-78
2024/03/19 10:19:11;;;;;;;4.80;1.23;;;18.20;99.90;;;;;;4877246;29;20826;-76
2024/03/19 10:21:40;;;;;;;3.05;0.90;;;18.00;99.90;;;;;;4876868;29;20260;-79
2024/03/19 10:24:08;;;;;;;4.60;0.93;;;18.00;99.90;;;;;;4877503;29;20211;-78
2024/03/19 10:26:34;;;;;;;4.03;1.00;;;18.00;99.90;;;;;;4876855;29;20296;-77
2024/03/19 10:29:02;;;;;;;4.88;1.13;;;18.10;99.90;;;;;;4892590;29;20273;-78
2024/03/19 10:31:29;;;;;;;2.92;0.90;;;18.50;99.90;;;;;;4891139;29;20262;-78
2024/03/19 10:34:00;;;;;;;2.60;0.82;;;18.40;99.90;;;;;;4877263;29;20672;-80
2024/03/19 10:36:34;;;;;;;3.25;1.00;;;18.40;99.90;;;;;;4876078;29;20231;-77
2024/03/19 10:39:01;;;;;;;3.90;1.10;;;18.40;99.90;;;;;;4877062;29;20214;-78
2024/03/19 10:41:31;;;;;;;4.00;0.90;;;18.30;99.90;;;;;;4877146;29;20203;-75
2024/03/19 10:44:00;;;;;;;2.70;1.00;;;18.30;99.90;;;;;;4884476;29;20739;-76
2024/03/19 10:46:30;;;;;;;4.85;1.20;;;18.20;99.90;;;;;;4891720;29;20223;-75
2024/03/19 10:48:57;;;;;;;3.30;1.08;;;18.20;99.90;;;;;;4877364;29;20291;-77
2024/03/19 10:51:26;;;;;;;2.53;1.00;;;18.40;99.90;;;;;;4876325;29;20243;-75
2024/03/19 10:53:57;;;;;;;1.83;1.08;;;18.50;99.90;;;;;;4877050;29;20250;-77
2024/03/19 10:56:26;;;;;;;1.55;0.85;;;18.80;99.90;;;;;;4876977;29;20292;-77
2024/03/19 10:58:53;;;;;;;3.63;1.25;;;18.70;99.90;;;;;;4876535;29;20307;-78
2024/03/19 11:01:21;;;;;;;3.33;1.00;;;18.50;99.90;;;;;;4877174;29;20632;-78
2024/03/19 11:03:54;;;;;;;3.85;0.88;;;18.40;99.90;;;;;;4876687;29;20302;-78
2024/03/19 11:06:23;;;;;;;3.85;1.20;;;18.30;99.90;;;;;;4859375;29;20248;-76
2024/03/19 11:08:57;;;;;;;2.45;0.80;;;18.40;99.90;;;;;;4876200;29;20218;-77
2024/03/19 11:11:35;;;;;;;1.52;0.60;;;18.40;99.90;;;;;;4877871;29;20248;-77
2024/03/19 11:14:04;;;;;;;2.28;0.73;;;18.50;99.90;;;;;;4880145;29;20472;-76
2024/03/19 11:16:38;;;;;;;2.15;0.70;;;18.90;99.90;;;;;;4880467;29;20258;-77
2024/03/19 11:19:17;;;;;;;3.97;1.05;;;19.10;99.90;;;;;;4879524;29;20243;-79
2024/03/19 11:21:45;;;;;;;4.55;1.40;;;19.10;99.90;;;;;;4879612;29;20286;-76
2024/03/19 11:24:23;;;;;;;3.15;0.70;;;19.20;99.90;;;;;;4880381;29;20238;-74
2024/03/19 11:26:54;;;;;;;2.03;0.93;;;19.20;99.90;;;;;;4880982;29;20259;-75
2024/03/19 11:29:23;;;;;;;3.38;1.00;;;19.20;99.90;;;;;;4881245;29;20267;-76
2024/03/19 11:31:50;;;;;;;2.40;0.70;;;19.30;99.90;;;;;;4880974;29;20247;-76
2024/03/19 11:34:19;;;;;;;3.53;0.90;;;19.50;99.90;;;;;;4881203;29;20238;-77
2024/03/19 11:36:47;;;;;;;4.70;1.00;;;19.40;99.90;;;;;;4881182;29;20318;-78
2024/03/19 11:39:14;;;;;;;2.15;0.80;;;19.00;99.90;;;;;;4881706;29;20553;-77
2024/03/19 11:41:43;;;;;;;3.25;0.85;;;19.00;99.90;;;;;;4880426;29;20203;-75
2024/03/19 11:44:14;;;;;;;3.10;0.80;;;19.20;99.90;;;;;;4881298;29;20250;-76
2024/03/19 11:46:41;;;;;;;3.35;0.80;;;19.30;99.90;;;;;;4881384;29;20746;-78
2024/03/19 11:49:23;;;;;;;3.30;0.82;;;19.30;99.90;;;;;;4881460;29;20637;-74
2024/03/19 11:51:58;;;;;;;3.35;0.93;;;19.20;99.90;;;;;;4880350;29;20745;-75
2024/03/19 11:54:25;;;;;;;1.30;0.80;;;19.50;99.90;;;;;;4881253;29;20249;-75
2024/03/19 11:56:54;;;;;;;2.67;1.15;;;19.30;99.90;;;;;;4881077;29;20279;-77
2024/03/19 11:59:23;;;;;;;3.33;0.80;;;19.40;99.90;;;;;;4881426;29;20577;-74
2024/03/19 12:01:52;;;;;;;5.15;1.05;;;19.50;99.90;;;;;;4881283;29;20242;-76
2024/03/19 12:04:19;;;;;;;3.22;0.77;;;19.60;99.90;;;;;;4881061;29;20211;-75
2024/03/19 12:06:47;;;;;;;3.70;1.20;;;19.50;99.90;;;;;;4881051;29;20235;-77
2024/03/19 12:09:14;;;;;;;3.50;0.95;;;19.20;99.90;;;;;;4881093;29;20218;-77
2024/03/19 12:11:41;;;;;;;1.95;0.82;;;19.10;99.90;;;;;;4881239;29;20662;-77
2024/03/19 12:14:13;;;;;;;1.50;0.82;;;19.30;99.90;;;;;;4881060;29;20291;-75
2024/03/19 12:16:41;;;;;;;2.83;0.80;;;19.30;99.90;;;;;;4881012;29;20235;-74
2024/03/19 12:19:11;;;;;;;2.50;1.05;;;19.20;99.90;;;;;;4881157;29;20633;-75
2024/03/19 12:21:40;;;;;;;4.38;1.00;;;19.10;99.90;;;;;;4880585;29;20638;-75
2024/03/19 12:24:10;;;;;;;1.70;1.13;;;19.10;99.90;;;;;;4878443;29;20203;-74
2024/03/19 12:26:37;;;;;;;2.47;0.75;;;19.10;99.90;;;;;;4879844;29;20613;-77
2024/03/19 12:29:06;;;;;;;3.58;1.25;;;19.00;99.90;;;;;;4880232;29;20253;-75
2024/03/19 12:31:37;;;;;;;3.72;1.08;;;18.70;99.90;;;;;;4880571;29;20247;-75
2024/03/19 12:34:16;;;;;;;1.58;0.93;;;18.70;99.90;;;;;;4880345;29;20689;-77
2024/03/19 12:36:44;;;;;;;3.70;1.20;;;18.80;99.90;;;;;;4880517;29;20292;-73
2024/03/19 12:39:12;;;;;;;2.78;1.30;;;18.90;99.90;;;;;;4875855;29;20203;-74
2024/03/19 12:41:39;;;;;;;4.63;1.15;;;18.90;99.90;;;;;;4881606;29;20247;-74
2024/03/19 12:44:06;;;;;;;1.90;1.10;;;18.90;99.90;;;;;;4880086;29;20211;-75
2024/03/19 12:46:36;;;;;;;4.05;1.55;;;18.90;99.90;;;;;;4879371;29;20600;-77
2024/03/19 12:49:03;;;;;;;3.70;1.52;;;18.90;99.90;;;;;;4878371;29;20214;-75
2024/03/19 12:51:30;;;;;;;3.28;1.60;;;18.90;99.90;;;;;;4880000;29;20274;-79
2024/03/19 12:53:57;;;;;;;2.88;1.30;;;18.80;99.90;;;;;;4879763;29;20255;-80
2024/03/19 12:56:24;;;;;;;2.45;1.40;;;18.90;99.90;;;;;;4880226;29;20657;-77
2024/03/19 12:58:51;;;;;;;1.80;1.13;;;18.80;99.90;;;;;;4891389;29;20235;-76
2024/03/19 13:01:18;;;;;;;2.65;1.17;;;18.90;99.90;;;;;;4879709;29;20289;-79
2024/03/19 13:03:46;;;;;;;3.88;1.10;;;18.70;99.90;;;;;;4879772;29;20203;-80
2024/03/19 13:06:13;;;;;;;2.25;1.10;;;18.60;99.90;;;;;;4879299;29;20319;-77
2024/03/19 13:08:40;;;;;;;1.95;0.90;;;18.60;99.90;;;;;;4879562;29;20294;-81
2024/03/19 13:11:08;;;;;;;2.67;0.90;;;18.50;99.90;;;;;;4879407;29;20277;-79
2024/03/19 13:13:34;;;;;;;3.40;1.00;;;18.60;99.90;;;;;;4878994;29;20210;-75
2024/03/19 13:16:01;;;;;;;1.85;1.00;;;18.90;99.90;;;;;;4879338;29;20247;-77
2024/03/19 13:18:30;;;;;;;2.10;0.85;;;18.80;99.90;;;;;;4879244;29;20703;-76
2024/03/19 13:20:58;;;;;;;2.53;1.05;;;18.60;99.90;;;;;;4879584;29;20693;-76
2024/03/19 13:23:25;;;;;;;1.70;1.00;;;18.60;99.90;;;;;;4879600;29;20243;-76
2024/03/19 13:25:52;;;;;;;4.43;1.00;;;18.70;99.90;;;;;;4879355;29;20279;-77
2024/03/19 13:28:19;;;;;;;4.20;1.38;;;18.60;99.90;;;;;;4879137;29;20258;-78
2024/03/19 13:30:47;;;;;;;4.50;1.10;;;18.80;99.90;;;;;;4879393;29;20239;-77
2024/03/19 13:33:14;;;;;;;1.60;1.20;;;18.80;99.90;;;;;;4882068;29;20202;-79
2024/03/19 13:35:41;;;;;;;2.70;1.02;;;19.00;99.90;;;;;;4879388;29;20210;-76
2024/03/19 13:38:11;;;;;;;1.95;1.00;;;19.10;99.90;;;;;;4879157;29;20611;-76
2024/03/19 13:40:37;;;;;;;2.17;1.13;;;19.00;99.90;;;;;;4879239;29;20211;-76
2024/03/19 13:43:05;;;;;;;2.72;1.00;;;18.80;99.90;;;;;;4879248;29;20276;-75
2024/03/19 13:45:32;;;;;;;3.70;0.73;;;18.60;99.90;;;;;;4879199;29;20298;-79
2024/03/19 13:47:59;;;;;;;2.40;0.85;;;18.70;99.90;;;;;;4879148;29;20231;-74
2024/03/19 13:50:26;;;;;;;4.00;1.40;;;18.80;99.90;;;;;;4878849;29;20243;-77
2024/03/19 13:52:54;;;;;;;3.30;1.05;;;18.60;99.90;;;;;;4879433;29;20219;-77
2024/03/19 13:55:24;;;;;;;2.17;1.17;;;18.60;99.90;;;;;;4878984;29;20250;-79
2024/03/19 13:57:51;;;;;;;2.17;0.60;;;18.80;99.90;;;;;;4878630;29;20227;-77
2024/03/19 14:00:22;;;;;;;1.23;0.88;;;18.80;99.90;;;;;;4877876;29;20211;-75
2024/03/19 14:02:50;;;;;;;2.13;1.02;;;18.70;99.90;;;;;;4878886;29;20661;-77
2024/03/19 14:05:17;;;;;;;0.98;0.65;;;18.40;99.90;;;;;;4875775;29;20576;-79
2024/03/19 14:07:44;;;;;;;3.53;1.10;;;18.40;99.90;;;;;;4878718;29;20756;-78
2024/03/19 14:10:11;;;;;;;1.95;0.70;;;18.40;99.90;;;;;;4878154;29;20242;-76
2024/03/19 14:12:39;;;;;;;2.40;0.90;;;18.30;99.90;;;;;;4878018;29;20728;-78
2024/03/19 14:15:08;;;;;;;2.90;1.10;;;18.10;99.90;;;;;;4877285;29;20614;-77
2024/03/19 14:17:34;;;;;;;2.78;0.70;;;18.20;99.90;;;;;;4877777;29;20704;-76
2024/03/19 14:20:03;;;;;;;2.22;1.27;;;18.20;99.90;;;;;;4875696;29;20225;-77
2024/03/19 14:22:30;;;;;;;3.00;0.75;;;18.20;99.90;;;;;;4868123;29;20238;-78
2024/03/19 14:24:57;;;;;;;4.05;0.80;;;18.30;99.90;;;;;;4867021;29;20238;-78
2024/03/19 14:27:24;;;;;;;2.78;1.08;;;18.40;99.90;;;;;;4877695;29;20262;-75
2024/03/19 14:29:52;;;;;;;1.48;0.90;;;18.60;99.90;;;;;;4880976;29;20243;-75
2024/03/19 14:32:20;;;;;;;1.00;0.75;;;18.80;99.90;;;;;;4888296;29;20326;-75
2024/03/19 14:34:47;;;;;;;2.58;0.93;;;18.90;99.90;;;;;;4883524;29;20242;-75
2024/03/19 14:37:16;;;;;;;3.53;0.70;;;18.90;99.90;;;;;;4877392;29;20262;-75
2024/03/19 14:39:43;;;;;;;2.55;0.60;;;18.80;99.90;;;;;;4873005;29;20267;-75
2024/03/19 14:42:10;;;;;;;2.25;0.77;;;18.90;99.90;;;;;;4877021;29;20294;-75
2024/03/19 14:44:37;;;;;;;2.70;0.60;;;18.90;99.90;;;;;;4877994;29;20203;-76
2024/03/19 14:47:07;;;;;;;3.42;0.80;;;18.90;99.90;;;;;;4880830;29;20258;-78
2024/03/19 14:49:34;;;;;;;1.58;0.82;;;18.80;99.90;;;;;;4881240;29;20661;-74
2024/03/19 14:52:01;;;;;;;2.05;0.60;;;18.60;99.90;;;;;;4881762;29;20274;-74
2024/03/19 14:54:28;;;;;;;1.48;0.63;;;18.70;99.90;;;;;;4876089;29;20688;-74
2024/03/19 14:56:54;;;;;;;2.50;0.70;;;18.60;99.90;;;;;;4881527;29;20274;-75
2024/03/19 14:59:22;;;;;;;3.33;0.73;;;18.50;99.90;;;;;;4881071;29;20342;-75
2024/03/19 15:01:48;;;;;;;3.15;1.10;;;18.40;99.90;;;;;;4881387;29;20243;-75
2024/03/19 15:04:18;;;;;;;1.27;0.85;;;18.50;99.90;;;;;;4880919;29;20699;-76
2024/03/19 15:06:46;;;;;;;2.75;0.80;;;18.50;99.90;;;;;;4881139;29;20231;-75
2024/03/19 15:09:13;;;;;;;2.28;0.90;;;18.50;99.90;;;;;;4877977;29;20238;-75
2024/03/19 15:11:41;;;;;;;0.95;0.60;;;18.40;99.90;;;;;;4872077;29;20235;-78
2024/03/19 15:14:08;;;;;;;2.38;0.80;;;18.50;99.90;;;;;;4881163;29;20211;-75
2024/03/19 15:16:35;;;;;;;2.00;0.80;;;18.50;99.90;;;;;;4880702;29;20270;-77
2024/03/19 15:19:03;;;;;;;1.88;0.65;;;18.60;99.90;;;;;;4879524;29;20239;-78
2024/03/19 15:21:33;;;;;;;3.05;1.38;;;18.60;99.90;;;;;;4880777;29;20290;-78
2024/03/19 15:24:01;;;;;;;2.42;0.80;;;18.60;99.90;;;;;;4878757;29;20278;-77
2024/03/19 15:26:28;;;;;;;2.25;0.80;;;18.50;99.90;;;;;;4878988;29;20287;-77
2024/03/19 15:28:55;;;;;;;3.28;0.82;;;18.50;99.90;;;;;;4881019;29;20249;-78
2024/03/19 15:31:22;;;;;;;2.17;0.90;;;18.40;99.90;;;;;;4880546;29;20310;-77
2024/03/19 15:33:49;;;;;;;3.25;1.00;;;18.50;99.90;;;;;;4882482;29;20235;-79
2024/03/19 15:36:16;;;;;;;1.30;0.80;;;18.40;99.90;;;;;;4880872;29;20247;-77
2024/03/19 15:38:45;;;;;;;1.65;0.73;;;18.30;99.90;;;;;;4881437;29;20238;-79
2024/03/19 15:41:12;;;;;;;2.38;1.30;;;18.20;99.90;;;;;;4881480;29;20643;-77
2024/03/19 15:43:40;;;;;;;1.70;0.70;;;18.40;99.90;;;;;;4881193;29;20597;-79
2024/03/19 15:46:07;;;;;;;1.15;0.70;;;18.40;99.90;;;;;;4881178;29;20218;-76
2024/03/19 15:48:35;;;;;;;2.30;0.60;;;18.30;99.90;;;;;;4880866;29;20235;-77
2024/03/19 15:51:02;;;;;;;5.00;0.90;;;18.10;99.90;;;;;;4876423;29;20223;-77
2024/03/19 15:53:29;;;;;;;1.33;0.85;;;18.10;99.90;;;;;;4877660;29;20273;-76
2024/03/19 15:55:59;;;;;;;3.78;0.90;;;18.20;99.90;;;;;;4880267;29;20716;-80
2024/03/19 15:58:26;;;;;;;1.77;0.73;;;18.10;99.90;;;;;;4879970;29;20211;-76
2024/03/19 16:00:53;;;;;;;2.70;0.63;;;17.80;99.90;;;;;;4880977;29;20215;-82
2024/03/19 16:03:20;;;;;;;3.50;0.98;;;17.80;99.90;;;;;;4881220;29;20239;-79
2024/03/19 16:05:47;;;;;;;2.38;0.70;;;17.80;99.90;;;;;;4881132;29;20249;-76
2024/03/19 16:08:14;;;;;;;1.88;0.80;;;18.00;99.90;;;;;;4880619;29;20629;-80
2024/03/19 16:10:41;;;;;;;1.65;0.70;;;18.10;99.90;;;;;;4880711;29;20623;-77
2024/03/19 16:13:09;;;;;;;2.35;0.95;;;18.20;99.90;;;;;;4880662;29;20262;-76
2024/03/19 16:15:37;;;;;;;3.33;1.00;;;18.20;99.90;;;;;;4881275;29;20259;-82
2024/03/19 16:18:04;;;;;;;2.10;0.70;;;18.30;99.90;;;;;;4880660;29;20269;-79
2024/03/19 16:20:31;;;;;;;1.90;0.65;;;18.30;99.90;;;;;;4880558;29;20626;-77
2024/03/19 16:22:58;;;;;;;2.05;0.60;;;18.10;99.90;;;;;;4880617;29;20240;-77
2024/03/19 16:25:25;;;;;;;1.85;0.80;;;18.10;99.90;;;;;;4880763;29;20253;-74
2024/03/19 16:27:52;;;;;;;2.30;0.70;;;18.00;99.90;;;;;;4880682;29;20270;-76
2024/03/19 16:30:20;;;;;;;2.35;0.80;;;18.00;99.90;;;;;;4880454;29;20247;-75
2024/03/19 16:32:47;;;;;;;1.25;0.70;;;17.80;99.90;;;;;;4880467;29;20241;-80
2024/03/19 16:35:14;;;;;;;3.85;0.75;;;17.70;99.90;;;;;;4899314;29;20238;-76
2024/03/19 16:37:41;;;;;;;2.90;1.20;;;17.70;99.90;;;;;;4899598;29;20230;-80
2024/03/19 16:40:09;;;;;;;3.70;0.80;;;17.40;99.90;;;;;;4880446;29;20215;-76
2024/03/19 16:42:35;;;;;;;2.22;0.90;;;17.40;99.90;;;;;;4880458;29;20284;-76
2024/03/19 16:45:04;;;;;;;2.17;1.00;;;17.30;99.90;;;;;;4880428;29;20313;-76
2024/03/19 16:47:32;;;;;;;1.52;0.65;;;17.30;99.90;;;;;;4880284;29;20262;-81
2024/03/19 16:49:59;;;;;;;3.63;0.70;;;17.30;99.90;;;;;;4879929;29;20273;-80
2024/03/19 16:52:26;;;;;;;3.70;0.60;;;17.30;99.90;;;;;;4880219;29;20281;-80
2024/03/19 16:54:52;;;;;;;5.25;0.73;;;17.20;99.90;;;;;;4880167;29;20239;-78
2024/03/19 16:57:19;;;;;;;2.38;1.02;;;17.10;99.90;;;;;;4880492;29;20303;-83
2024/03/19 16:59:46;;;;;;;0.98;0.60;;;17.20;99.90;;;;;;4880355;29;20245;-78
2024/03/19 17:02:15;;;;;;;1.10;0.70;;;17.20;99.90;;;;;;4879880;29;20246;-78
2024/03/19 17:04:44;;;;;;;1.77;0.80;;;17.20;99.90;;;;;;4880213;29;20218;-76
2024/03/19 17:07:12;;;;;;;3.15;0.80;;;17.20;99.90;;;;;;4879841;29;20259;-76
2024/03/19 17:09:39;;;;;;;1.52;0.52;;;17.20;99.90;;;;;;4879401;29;20271;-74
2024/03/19 17:12:07;;;;;;;1.77;0.70;;;17.20;99.90;;;;;;4879884;29;20329;-79
2024/03/19 17:14:34;;;;;;;1.15;0.63;;;17.20;99.90;;;;;;4879848;29;20222;-74
2024/03/19 17:17:01;;;;;;;1.38;0.60;;;17.20;99.90;;;;;;4879825;29;20273;-74
2024/03/19 17:19:28;;;;;;;5.00;1.92;;;17.10;99.90;;;;;;4879625;29;20211;-77
2024/03/19 17:21:58;;;;;;;4.55;1.45;;;17.00;99.90;;;;;;4879548;29;20265;-78
2024/03/19 17:24:25;;;;;;;5.18;1.00;;;16.90;99.90;;;;;;4879727;29;20230;-77
2024/03/19 17:26:52;;;;;;;1.58;0.80;;;16.80;99.90;;;;;;4879549;29;20270;-78
2024/03/19 17:29:19;;;;;;;1.02;0.63;;;16.80;99.90;;;;;;4879198;29;20218;-77
2024/03/19 17:31:47;;;;;;;2.72;0.73;;;16.80;99.90;;;;;;4879530;29;20239;-76
2024/03/19 17:34:13;;;;;;;3.03;0.80;;;16.80;99.90;;;;;;4881535;29;20254;-79
2024/03/19 17:36:41;;;;;;;2.10;0.80;;;16.80;99.90;;;;;;4879071;29;20269;-76
2024/03/19 17:39:09;;;;;;;2.50;0.82;;;16.70;99.90;;;;;;4879315;29;20259;-79
2024/03/19 17:41:37;;;;;;;2.33;1.00;;;16.60;99.90;;;;;;4879602;29;20242;-78
2024/03/19 17:44:05;;;;;;;4.13;0.90;;;16.60;99.90;;;;;;4879445;29;20625;-77
2024/03/19 17:46:32;;;;;;;1.77;1.10;;;16.50;99.90;;;;;;4879145;29;20266;-79
2024/03/19 17:48:59;;;;;;;1.48;0.80;;;16.40;99.90;;;;;;4875494;29;20294;-80
2024/03/19 17:51:26;;;;;;;1.05;0.60;;;16.30;99.90;;;;;;4874182;29;20253;-77
2024/03/19 17:53:53;;;;;;;1.75;0.75;;;16.30;99.90;;;;;;4874470;29;20267;-76
2024/03/19 17:56:21;;;;;;;6.20;0.90;;;16.20;99.90;;;;;;4874204;29;20262;-79
2024/03/19 17:58:48;;;;;;;2.70;1.00;;;16.00;99.90;;;;;;4876984;29;20625;-78
2024/03/19 18:01:15;;;;;;;1.80;1.00;;;15.90;99.90;;;;;;4877516;29;20215;-74
2024/03/19 18:03:43;;;;;;;1.23;1.00;;;15.80;99.90;;;;;;4888352;29;20733;-76
2024/03/19 18:06:11;;;;;;;2.33;1.00;;;15.60;99.90;;;;;;4877191;29;20207;-80
2024/03/19 18:08:45;;;;;;;2.00;1.20;;;15.50;99.90;;;;;;4877161;29;20207;-85
2024/03/19 18:11:12;;;;;;;2.47;1.27;;;15.50;99.90;;;;;;4876595;29;20670;-79
2024/03/19 18:13:40;;;;;;;1.20;1.10;;;15.40;99.90;;;;;;4873150;29;20227;-77
2024/03/19 18:16:07;;;;;;;3.23;1.43;;;15.20;99.90;;;;;;4875395;29;20238;-78
2024/03/19 18:18:34;;;;;;;4.87;1.50;;;15.00;99.90;;;;;;4876268;29;20247;-77
2024/03/19 18:21:01;;;;;;;2.13;1.23;;;15.00;99.90;;;;;;4875004;29;20727;-87
2024/03/19 18:23:28;;;;;;;2.87;1.00;;;14.90;99.90;;;;;;4871730;29;20203;-90
2024/03/19 18:25:55;;;;;;;2.10;1.10;;;14.80;99.90;;;;;;4875505;29;20263;-81
2024/03/19 18:28:23;;;;;;;3.20;1.13;;;14.70;99.90;;;;;;4872321;29;20278;-74
2024/03/19 18:30:51;;;;;;;5.10;1.20;;;14.60;99.90;;;;;;4873487;29;20263;-81
2024/03/19 18:33:18;;;;;;;4.43;0.90;;;14.60;99.90;;;;;;4870565;29;20351;-75
2024/03/19 18:35:45;;;;;;;1.93;1.10;;;14.50;99.90;;;;;;4876352;29;20266;-75
2024/03/19 18:38:12;;;;;;;1.20;0.90;;;14.30;99.90;;;;;;4876067;29;20277;-84
2024/03/19 18:40:39;;;;;;;4.20;1.07;;;14.20;99.90;;;;;;4875902;29;20207;-73
2024/03/19 18:43:06;;;;;;;2.07;1.10;;;14.10;99.90;;;;;;4869046;29;20251;-73
2024/03/19 18:45:33;;;;;;;4.83;1.10;;;14.10;99.90;;;;;;4872770;29;20799;-75
2024/03/19 18:48:02;;;;;;;4.00;1.07;;;14.00;99.90;;;;;;4868918;29;20746;-73
2024/03/19 18:50:28;;;;;;;3.80;1.20;;;14.00;99.90;;;;;;4873267;29;20265;-73
2024/03/19 18:52:55;;;;;;;1.40;1.20;;;13.90;99.90;;;;;;4877072;29;20325;-74
2024/03/19 18:55:22;;;;;;;3.57;1.30;;;13.80;99.90;;;;;;4871979;29;20249;-74
2024/03/19 18:57:56;;;;;;;4.87;1.43;;;13.80;99.90;;;;;;4877557;29;20223;-75
2024/03/19 19:00:23;;;;;;;5.63;1.30;;;13.70;99.90;;;;;;4877587;29;20213;-73
2024/03/19 19:02:51;;;;;;;4.53;1.30;;;13.60;99.90;;;;;;4877653;29;20837;-73
2024/03/19 19:05:20;;;;;;;3.63;1.53;;;13.50;99.90;;;;;;4872042;29;20217;-75
2024/03/19 19:07:47;;;;;;;2.60;1.30;;;13.50;99.90;;;;;;4873630;29;20234;-74
2024/03/19 19:10:14;;;;;;;7.37;1.73;;;13.40;99.90;;;;;;4877689;29;20208;-74
2024/03/19 19:12:41;;;;;;;4.77;1.80;;;13.40;99.90;;;;;;4877544;29;20270;-74
2024/03/19 19:15:09;;;;;;;4.77;1.50;;;13.30;99.90;;;;;;4875282;29;20230;-75
2024/03/19 19:17:36;;;;;;;3.20;1.60;;;13.30;99.90;;;;;;4877489;29;20227;-75
2024/03/19 19:20:03;;;;;;;3.83;1.90;;;13.20;99.90;;;;;;4866279;29;20662;-74
2024/03/19 19:22:31;;;;;;;4.13;1.93;;;13.20;99.90;;;;;;4878057;29;20243;-74
2024/03/19 19:24:59;;;;;;;3.77;1.90;;;13.10;99.90;;;;;;4872813;29;20703;-75
2024/03/19 19:27:26;;;;;;;5.60;1.83;;;13.10;99.90;;;;;;4862355;29;20236;-74
2024/03/19 19:29:53;;;;;;;2.60;1.60;;;13.10;99.90;;;;;;4859441;29;20634;-74
2024/03/19 19:32:21;;;;;;;3.50;1.70;;;13.00;99.90;;;;;;4861280;29;20243;-75
2024/03/19 19:34:48;;;;;;;3.70;1.83;;;13.00;99.90;;;;;;4862986;29;20228;-73
2024/03/19 19:37:15;;;;;;;4.03;1.50;;;13.00;99.90;;;;;;4862813;29;20768;-74
2024/03/19 19:39:44;;;;;;;4.53;1.73;;;12.90;99.90;;;;;;4880940;29;20238;-74
2024/03/19 19:42:11;;;;;;;3.03;1.70;;;12.80;99.90;;;;;;4880539;29;20218;-75
2024/03/19 19:44:38;;;;;;;4.50;2.10;;;12.70;99.90;;;;;;4880976;29;20243;-74
2024/03/19 19:47:05;;;;;;;5.30;2.03;;;12.90;99.90;;;;;;4880909;29;20329;-74
2024/03/19 19:49:32;;;;;;;6.90;2.20;;;13.10;99.90;;;;;;4881432;29;20247;-74
2024/03/19 19:52:00;;;;;;;3.67;2.00;;;13.10;99.90;;;;;;4880694;29;20225;-74
2024/03/19 19:54:26;;;;;;;4.73;2.23;;;13.00;99.90;;;;;;4880987;29;20720;-74
2024/03/19 19:56:55;;;;;;;4.13;2.03;;;12.90;99.90;;;;;;4880900;29;20284;-74
2024/03/19 19:59:23;;;;;;;4.63;2.30;;;12.90;99.90;;;;;;4881256;29;20249;-74
2024/03/19 20:01:50;;;;;;;3.97;2.00;;;12.80;99.90;;;;;;4880883;29;20254;-74
2024/03/19 20:04:17;;;;;;;5.77;2.00;;;12.80;99.90;;;;;;4882872;29;20277;-74
2024/03/19 20:06:44;;;;;;;3.70;2.23;;;13.00;99.90;;;;;;4884348;29;20235;-74
2024/03/19 20:09:11;;;;;;;6.17;2.00;;;13.00;99.90;;;;;;4875352;29;20280;-75
2024/03/19 20:11:39;;;;;;;6.83;2.87;;;13.00;99.90;;;;;;4880748;29;20250;-74
2024/03/19 20:14:07;;;;;;;4.73;2.20;;;13.00;99.90;;;;;;4880341;29;20282;-74
2024/03/19 20:16:34;;;;;;;7.00;1.93;;;13.00;99.90;;;;;;4880168;29;20285;-73
2024/03/19 20:19:01;;;;;;;4.63;2.17;;;13.00;99.90;;;;;;4880122;29;20247;-73
2024/03/19 20:21:28;;;;;;;4.70;2.17;;;13.00;99.90;;;;;;4880372;29;20672;-73
2024/03/19 20:23:55;;;;;;;3.77;2.07;;;12.90;99.90;;;;;;4880401;29;20234;-74
2024/03/19 20:26:23;;;;;;;3.90;1.87;;;12.90;99.90;;;;;;4880584;29;20263;-73
2024/03/19 20:28:50;;;;;;;7.63;2.00;;;13.00;99.90;;;;;;4880699;29;20222;-73
2024/03/19 20:31:19;;;;;;;4.37;1.90;;;12.90;99.90;;;;;;4879819;29;20207;-74
2024/03/19 20:33:46;;;;;;;8.13;2.30;;;12.90;99.90;;;;;;4866409;29;20246;-74
2024/03/19 20:36:13;;;;;;;5.53;2.00;;;12.70;99.90;;;;;;4872798;29;20207;-74
2024/03/19 20:38:40;;;;;;;6.30;1.80;;;12.60;99.90;;;;;;4880403;29;20632;-74
2024/03/19 20:41:07;;;;;;;4.63;1.67;;;12.80;99.90;;;;;;4880421;29;20317;-74
2024/03/19 20:43:34;;;;;;;6.77;2.07;;;12.80;99.90;;;;;;4879376;29;20215;-74
2024/03/19 20:46:01;;;;;;;3.07;1.80;;;12.90;99.90;;;;;;4880362;29;20237;-74
2024/03/19 20:48:30;;;;;;;5.50;2.23;;;13.00;99.90;;;;;;4879938;29;20657;-74
2024/03/19 20:50:56;;;;;;;4.33;2.37;;;13.20;99.90;;;;;;4867986;29;20306;-74
2024/03/19 20:53:24;;;;;;;6.40;1.80;;;13.10;99.90;;;;;;4880088;29;20637;-75
2024/03/19 20:55:51;;;;;;;5.80;1.97;;;13.00;99.90;;;;;;4868480;29;20207;-75
2024/03/19 20:58:18;;;;;;;5.23;1.80;;;12.80;99.90;;;;;;4879632;29;20764;-74
2024/03/19 21:00:46;;;;;;;4.27;1.70;;;12.80;99.90;;;;;;4879666;29;20246;-74
2024/03/19 21:03:13;;;;;;;4.50;1.90;;;12.90;99.90;;;;;;4875592;29;20211;-75
2024/03/19 21:05:43;;;;;;;9.30;2.00;;;12.90;99.90;;;;;;4871584;29;20326;-74
2024/03/19 21:08:09;;;;;;;5.40;1.27;;;12.80;99.90;;;;;;4879653;29;20266;-74
2024/03/19 21:10:37;;;;;;;7.17;1.97;;;12.70;99.90;;;;;;4878709;29;20254;-74
2024/03/19 21:13:04;;;;;;;6.40;1.90;;;12.60;99.90;;;;;;4879747;29;20218;-74
2024/03/19 21:15:31;;;;;;;3.33;1.70;;;12.40;99.90;;;;;;4878607;29;20568;-74
2024/03/19 21:17:59;;;;;;;3.47;1.73;;;12.30;99.90;;;;;;4879541;29;20262;-76
2024/03/19 21:20:26;;;;;;;8.07;1.90;;;12.20;99.90;;;;;;4878436;29;20252;-73
2024/03/19 21:22:54;;;;;;;5.30;2.00;;;12.10;99.90;;;;;;4879164;29;20652;-74
2024/03/19 21:25:21;;;;;;;6.57;2.00;;;12.10;99.90;;;;;;4879039;29;20290;-74
2024/03/19 21:27:49;;;;;;;7.27;1.63;;;12.00;99.90;;;;;;4879088;29;20258;-75
2024/03/19 21:30:17;;;;;;;5.23;1.50;;;11.90;99.90;;;;;;4879405;29;20677;-74
2024/03/19 21:32:44;;;;;;;5.30;1.50;;;11.80;99.90;;;;;;4879362;29;20617;-74
2024/03/19 21:35:11;;;;;;;9.20;2.10;;;11.80;99.90;;;;;;4872879;29;20274;-74
2024/03/19 21:37:39;;;;;;;3.10;1.23;;;11.70;99.90;;;;;;4879358;29;20409;-75
2024/03/19 21:40:10;;;;;;;6.27;1.53;;;11.70;99.90;;;;;;4879042;29;20215;-76